sensor_id;sensor_type;location;lat;lon;timestamp;noise_LAeq;noise_LA_min;noise_LA_max;noise_LA01;noise_LA95
40103;Laerm;25814;48.550;9.108;2023-04-12T00:00:06;30.61;29.36;43.97;;
40103;Laerm;25814;48.550;9.108;2023-04-12T00:02:37;30.87;29.74;34.70;;
40103;Laerm;25814;48.550;9.108;2023-04-12T00:05:04;31.32;30.33;34.23;;
40103;Laerm;25814;48.550;9.108;2023-04-12T00:07:30;31.93;30.78;35.87;;
40103;Laerm;25814;48.550;9.108;2023-04-12T00:09:57;33.03;31.24;36.53;;
40103;Laerm;25814;48.550;9.108;2023-04-12T00:12:23;33.11;31.77;35.58;;
40103;Laerm;25814;48.550;9.108;2023-04-12T00:14:49;32.62;31.09;47.25;;
40103;Laerm;25814;48.550;9.108;2023-04-12T00:17:16;32.74;31.37;41.77;;
40103;Laerm;25814;48.550;9.108;2023-04-12T00:19:43;34.36;31.08;44.71;;
40103;Laerm;25814;48.550;9.108;2023-04-12T00:22:10;32.14;30.88;41.32;;
40103;Laerm;25814;48.550;9.108;2023-04-12T00:24:38;32.65;31.23;40.03;;
40103;Laerm;25814;48.550;9.108;2023-04-12T00:27:05;33.21;31.95;40.72;;
40103;Laerm;25814;48.550;9.108;2023-04-12T00:29:32;33.16;31.60;46.55;;
40103;Laerm;25814;48.550;9.108;2023-04-12T00:31:59;33.41;31.80;42.38;;
40103;Laerm;25814;48.550;9.108;2023-04-12T00:34:27;34.16;32.69;42.38;;
40103;Laerm;25814;48.550;9.108;2023-04-12T00:36:53;35.23;32.99;41.58;;
40103;Laerm;25814;48.550;9.108;2023-04-12T00:39:20;36.38;34.72;47.39;;
40103;Laerm;25814;48.550;9.108;2023-04-12T00:41:46;36.58;34.70;42.87;;
40103;Laerm;25814;48.550;9.108;2023-04-12T00:44:12;35.51;33.21;41.68;;
40103;Laerm;25814;48.550;9.108;2023-04-12T00:46:39;35.47;33.70;44.88;;
40103;Laerm;25814;48.550;9.108;2023-04-12T00:49:06;36.61;34.45;42.39;;
40103;Laerm;25814;48.550;9.108;2023-04-12T00:51:32;36.53;33.89;42.56;;
40103;Laerm;25814;48.550;9.108;2023-04-12T00:53:59;35.43;33.52;43.60;;
40103;Laerm;25814;48.550;9.108;2023-04-12T00:56:27;36.77;34.24;42.62;;
40103;Laerm;25814;48.550;9.108;2023-04-12T00:58:55;38.37;35.75;49.41;;
40103;Laerm;25814;48.550;9.108;2023-04-12T01:01:22;37.90;35.10;44.76;;
40103;Laerm;25814;48.550;9.108;2023-04-12T01:03:51;36.67;34.63;45.68;;
40103;Laerm;25814;48.550;9.108;2023-04-12T01:06:45;35.82;33.39;46.28;;
40103;Laerm;25814;48.550;9.108;2023-04-12T01:12:31;34.93;32.84;40.88;;
40103;Laerm;25814;48.550;9.108;2023-04-12T01:15:11;35.48;33.63;44.12;;
40103;Laerm;25814;48.550;9.108;2023-04-12T01:18:02;37.18;34.22;47.60;;
40103;Laerm;25814;48.550;9.108;2023-04-12T01:20:39;38.61;34.93;49.01;;
40103;Laerm;25814;48.550;9.108;2023-04-12T01:23:16;37.05;34.22;44.52;;
40103;Laerm;25814;48.550;9.108;2023-04-12T01:26:11;36.39;33.82;47.43;;
40103;Laerm;25814;48.550;9.108;2023-04-12T01:28:44;37.98;33.68;50.38;;
40103;Laerm;25814;48.550;9.108;2023-04-12T01:31:13;35.53;32.42;48.82;;
40103;Laerm;25814;48.550;9.108;2023-04-12T01:33:42;34.34;31.32;46.21;;
40103;Laerm;25814;48.550;9.108;2023-04-12T01:36:14;33.81;31.63;44.22;;
40103;Laerm;25814;48.550;9.108;2023-04-12T01:38:42;33.89;31.49;42.63;;
40103;Laerm;25814;48.550;9.108;2023-04-12T01:41:09;39.59;32.78;48.77;;
40103;Laerm;25814;48.550;9.108;2023-04-12T01:43:46;42.35;34.20;51.61;;
40103;Laerm;25814;48.550;9.108;2023-04-12T01:46:15;35.45;32.23;44.38;;
40103;Laerm;25814;48.550;9.108;2023-04-12T01:48:50;34.52;31.56;47.23;;
40103;Laerm;25814;48.550;9.108;2023-04-12T01:51:48;33.61;31.15;41.32;;
40103;Laerm;25814;48.550;9.108;2023-04-12T01:54:21;33.72;31.51;47.51;;
40103;Laerm;25814;48.550;9.108;2023-04-12T01:56:55;33.62;31.46;49.89;;
40103;Laerm;25814;48.550;9.108;2023-04-12T01:59:27;34.43;32.12;44.81;;
40103;Laerm;25814;48.550;9.108;2023-04-12T02:01:55;35.44;32.81;44.44;;
40103;Laerm;25814;48.550;9.108;2023-04-12T02:04:24;35.84;33.94;46.28;;
40103;Laerm;25814;48.550;9.108;2023-04-12T02:06:52;36.61;34.46;42.63;;
40103;Laerm;25814;48.550;9.108;2023-04-12T02:09:19;36.44;34.24;44.16;;
40103;Laerm;25814;48.550;9.108;2023-04-12T02:11:47;37.15;33.54;49.43;;
40103;Laerm;25814;48.550;9.108;2023-04-12T02:14:14;36.07;33.80;44.95;;
40103;Laerm;25814;48.550;9.108;2023-04-12T02:16:41;35.34;32.30;44.68;;
40103;Laerm;25814;48.550;9.108;2023-04-12T02:19:09;34.37;32.07;45.87;;
40103;Laerm;25814;48.550;9.108;2023-04-12T02:21:40;34.83;32.45;44.97;;
40103;Laerm;25814;48.550;9.108;2023-04-12T02:24:08;35.75;33.35;45.17;;
40103;Laerm;25814;48.550;9.108;2023-04-12T02:26:36;35.75;33.13;44.10;;
40103;Laerm;25814;48.550;9.108;2023-04-12T02:29:07;35.50;32.69;44.30;;
40103;Laerm;25814;48.550;9.108;2023-04-12T02:31:37;34.91;32.28;44.58;;
40103;Laerm;25814;48.550;9.108;2023-04-12T02:34:04;34.02;31.81;41.94;;
40103;Laerm;25814;48.550;9.108;2023-04-12T02:36:30;33.73;31.79;41.34;;
40103;Laerm;25814;48.550;9.108;2023-04-12T02:38:56;34.33;32.42;41.52;;
40103;Laerm;25814;48.550;9.108;2023-04-12T02:41:23;34.35;32.31;45.55;;
40103;Laerm;25814;48.550;9.108;2023-04-12T02:43:50;33.82;31.40;44.65;;
40103;Laerm;25814;48.550;9.108;2023-04-12T02:46:20;33.27;31.14;44.82;;
40103;Laerm;25814;48.550;9.108;2023-04-12T02:48:47;32.55;30.73;40.31;;
40103;Laerm;25814;48.550;9.108;2023-04-12T02:51:13;32.88;30.76;47.22;;
40103;Laerm;25814;48.550;9.108;2023-04-12T02:53:40;32.35;30.35;47.64;;
40103;Laerm;25814;48.550;9.108;2023-04-12T02:56:07;32.89;30.80;46.41;;
40103;Laerm;25814;48.550;9.108;2023-04-12T02:58:35;34.31;31.48;46.57;;
40103;Laerm;25814;48.550;9.108;2023-04-12T03:01:02;34.36;32.05;45.04;;
40103;Laerm;25814;48.550;9.108;2023-04-12T03:03:34;33.95;31.59;42.49;;
40103;Laerm;25814;48.550;9.108;2023-04-12T03:06:01;34.00;31.97;42.78;;
40103;Laerm;25814;48.550;9.108;2023-04-12T03:08:27;34.50;32.19;41.62;;
40103;Laerm;25814;48.550;9.108;2023-04-12T03:10:54;34.42;32.62;45.38;;
40103;Laerm;25814;48.550;9.108;2023-04-12T03:13:20;34.45;32.74;44.38;;
40103;Laerm;25814;48.550;9.108;2023-04-12T03:15:46;35.11;33.14;47.08;;
40103;Laerm;25814;48.550;9.108;2023-04-12T03:18:14;35.43;33.65;48.00;;
40103;Laerm;25814;48.550;9.108;2023-04-12T03:20:41;36.07;33.68;44.02;;
40103;Laerm;25814;48.550;9.108;2023-04-12T03:23:08;36.46;33.98;45.27;;
40103;Laerm;25814;48.550;9.108;2023-04-12T03:25:35;36.42;34.55;44.09;;
40103;Laerm;25814;48.550;9.108;2023-04-12T03:28:01;36.62;34.40;50.98;;
40103;Laerm;25814;48.550;9.108;2023-04-12T03:30:28;36.18;33.87;42.74;;
40103;Laerm;25814;48.550;9.108;2023-04-12T03:32:54;36.53;33.60;45.56;;
40103;Laerm;25814;48.550;9.108;2023-04-12T03:35:21;37.00;34.12;44.51;;
40103;Laerm;25814;48.550;9.108;2023-04-12T03:37:47;35.91;33.19;49.25;;
40103;Laerm;25814;48.550;9.108;2023-04-12T03:40:13;35.33;32.78;44.54;;
40103;Laerm;25814;48.550;9.108;2023-04-12T03:42:39;35.29;33.10;47.75;;
40103;Laerm;25814;48.550;9.108;2023-04-12T03:45:06;35.14;33.22;41.60;;
40103;Laerm;25814;48.550;9.108;2023-04-12T03:47:32;35.82;33.48;44.16;;
40103;Laerm;25814;48.550;9.108;2023-04-12T03:50:05;36.37;32.74;51.77;;
40103;Laerm;25814;48.550;9.108;2023-04-12T03:52:32;35.13;32.50;45.42;;
40103;Laerm;25814;48.550;9.108;2023-04-12T03:54:59;44.68;35.53;59.26;;
40103;Laerm;25814;48.550;9.108;2023-04-12T03:57:25;37.39;33.22;57.69;;
40103;Laerm;25814;48.550;9.108;2023-04-12T03:59:52;39.18;33.91;49.40;;
40103;Laerm;25814;48.550;9.108;2023-04-12T04:02:18;49.65;35.07;67.12;;
40103;Laerm;25814;48.550;9.108;2023-04-12T04:04:44;54.26;36.04;69.24;;
40103;Laerm;25814;48.550;9.108;2023-04-12T04:07:11;56.89;35.76;73.00;;
40103;Laerm;25814;48.550;9.108;2023-04-12T04:09:37;56.10;35.23;71.59;;
40103;Laerm;25814;48.550;9.108;2023-04-12T04:12:04;47.25;36.06;59.37;;
40103;Laerm;25814;48.550;9.108;2023-04-12T04:14:30;47.97;35.71;59.70;;
40103;Laerm;25814;48.550;9.108;2023-04-12T04:16:59;48.05;35.75;60.05;;
40103;Laerm;25814;48.550;9.108;2023-04-12T04:19:25;48.71;35.78;60.46;;
40103;Laerm;25814;48.550;9.108;2023-04-12T04:21:51;47.04;36.59;59.78;;
40103;Laerm;25814;48.550;9.108;2023-04-12T04:24:18;46.07;37.36;59.35;;
40103;Laerm;25814;48.550;9.108;2023-04-12T04:26:46;48.77;38.53;60.04;;
40103;Laerm;25814;48.550;9.108;2023-04-12T04:29:14;42.10;36.97;52.61;;
40103;Laerm;25814;48.550;9.108;2023-04-12T04:31:40;42.95;37.60;55.57;;
40103;Laerm;25814;48.550;9.108;2023-04-12T04:34:10;48.53;38.08;68.73;;
40103;Laerm;25814;48.550;9.108;2023-04-12T04:36:40;42.37;38.41;56.04;;
40103;Laerm;25814;48.550;9.108;2023-04-12T04:39:06;40.72;38.32;52.86;;
40103;Laerm;25814;48.550;9.108;2023-04-12T04:41:34;40.98;37.36;56.49;;
40103;Laerm;25814;48.550;9.108;2023-04-12T04:44:07;39.99;37.26;50.58;;
40103;Laerm;25814;48.550;9.108;2023-04-12T04:46:37;43.43;37.59;57.53;;
40103;Laerm;25814;48.550;9.108;2023-04-12T04:49:05;42.14;37.32;53.80;;
40103;Laerm;25814;48.550;9.108;2023-04-12T04:51:31;41.85;37.46;56.55;;
40103;Laerm;25814;48.550;9.108;2023-04-12T04:53:57;52.09;38.19;67.69;;
40103;Laerm;25814;48.550;9.108;2023-04-12T04:56:24;41.54;38.31;51.43;;
40103;Laerm;25814;48.550;9.108;2023-04-12T04:58:50;49.37;37.70;64.47;;
40103;Laerm;25814;48.550;9.108;2023-04-12T05:01:16;44.46;38.34;60.73;;
40103;Laerm;25814;48.550;9.108;2023-04-12T05:03:43;40.55;37.39;50.48;;
40103;Laerm;25814;48.550;9.108;2023-04-12T05:06:10;40.94;37.79;53.06;;
40103;Laerm;25814;48.550;9.108;2023-04-12T05:08:36;41.64;38.59;48.54;;
40103;Laerm;25814;48.550;9.108;2023-04-12T05:11:03;45.04;38.53;61.72;;
40103;Laerm;25814;48.550;9.108;2023-04-12T05:13:30;42.47;38.25;59.67;;
40103;Laerm;25814;48.550;9.108;2023-04-12T05:15:56;44.14;39.10;54.74;;
40103;Laerm;25814;48.550;9.108;2023-04-12T05:18:22;46.81;37.76;67.42;;
40103;Laerm;25814;48.550;9.108;2023-04-12T05:20:48;43.36;37.67;59.21;;
40103;Laerm;25814;48.550;9.108;2023-04-12T05:23:14;43.00;37.60;56.14;;
40103;Laerm;25814;48.550;9.108;2023-04-12T05:25:46;39.92;37.39;46.88;;
40103;Laerm;25814;48.550;9.108;2023-04-12T05:28:15;40.44;37.99;52.07;;
40103;Laerm;25814;48.550;9.108;2023-04-12T05:30:43;41.46;38.34;47.97;;
40103;Laerm;25814;48.550;9.108;2023-04-12T05:33:10;46.25;37.45;58.38;;
40103;Laerm;25814;48.550;9.108;2023-04-12T05:35:36;42.15;37.86;57.62;;
40103;Laerm;25814;48.550;9.108;2023-04-12T05:38:02;46.36;37.15;64.13;;
40103;Laerm;25814;48.550;9.108;2023-04-12T05:40:29;42.51;36.45;57.46;;
40103;Laerm;25814;48.550;9.108;2023-04-12T05:42:57;43.33;37.37;66.36;;
40103;Laerm;25814;48.550;9.108;2023-04-12T05:45:24;42.17;36.55;56.25;;
40103;Laerm;25814;48.550;9.108;2023-04-12T05:47:50;46.75;36.40;65.87;;
40103;Laerm;25814;48.550;9.108;2023-04-12T05:50:16;42.22;36.18;55.71;;
40103;Laerm;25814;48.550;9.108;2023-04-12T05:52:42;41.65;35.88;50.20;;
40103;Laerm;25814;48.550;9.108;2023-04-12T05:55:09;42.79;36.06;59.67;;
40103;Laerm;25814;48.550;9.108;2023-04-12T05:57:35;40.27;36.01;51.15;;
40103;Laerm;25814;48.550;9.108;2023-04-12T06:00:01;39.45;35.79;49.20;;
40103;Laerm;25814;48.550;9.108;2023-04-12T06:02:31;51.94;35.49;72.00;;
40103;Laerm;25814;48.550;9.108;2023-04-12T06:04:58;40.05;35.67;50.30;;
40103;Laerm;25814;48.550;9.108;2023-04-12T06:07:26;44.19;35.99;57.84;;
40103;Laerm;25814;48.550;9.108;2023-04-12T06:09:52;38.20;36.01;44.51;;
40103;Laerm;25814;48.550;9.108;2023-04-12T06:12:19;43.54;36.33;53.17;;
40103;Laerm;25814;48.550;9.108;2023-04-12T06:14:45;43.23;38.00;51.98;;
40103;Laerm;25814;48.550;9.108;2023-04-12T06:17:11;41.40;36.92;49.25;;
40103;Laerm;25814;48.550;9.108;2023-04-12T06:19:37;45.00;36.35;65.62;;
40103;Laerm;25814;48.550;9.108;2023-04-12T06:22:04;50.97;36.63;67.06;;
40103;Laerm;25814;48.550;9.108;2023-04-12T06:24:30;41.03;35.52;51.30;;
40103;Laerm;25814;48.550;9.108;2023-04-12T06:26:56;48.29;35.41;64.71;;
40103;Laerm;25814;48.550;9.108;2023-04-12T06:29:22;38.18;35.48;47.72;;
40103;Laerm;25814;48.550;9.108;2023-04-12T06:31:49;38.69;35.92;48.09;;
40103;Laerm;25814;48.550;9.108;2023-04-12T06:34:15;39.96;35.95;55.88;;
40103;Laerm;25814;48.550;9.108;2023-04-12T06:36:41;42.99;36.76;56.52;;
40103;Laerm;25814;48.550;9.108;2023-04-12T06:39:08;45.13;36.36;60.92;;
40103;Laerm;25814;48.550;9.108;2023-04-12T06:41:36;43.08;36.44;62.54;;
40103;Laerm;25814;48.550;9.108;2023-04-12T06:44:02;43.04;36.39;59.77;;
40103;Laerm;25814;48.550;9.108;2023-04-12T06:46:29;40.78;36.49;51.24;;
40103;Laerm;25814;48.550;9.108;2023-04-12T06:48:55;40.29;36.15;52.92;;
40103;Laerm;25814;48.550;9.108;2023-04-12T06:51:21;41.00;35.73;54.12;;
40103;Laerm;25814;48.550;9.108;2023-04-12T06:53:50;43.26;36.56;54.87;;
40103;Laerm;25814;48.550;9.108;2023-04-12T06:56:16;46.96;35.71;69.01;;
40103;Laerm;25814;48.550;9.108;2023-04-12T06:58:43;40.90;36.66;57.82;;
40103;Laerm;25814;48.550;9.108;2023-04-12T07:01:09;42.81;36.20;59.27;;
40103;Laerm;25814;48.550;9.108;2023-04-12T07:03:35;43.19;35.34;58.88;;
40103;Laerm;25814;48.550;9.108;2023-04-12T07:06:02;43.63;36.66;63.47;;
40103;Laerm;25814;48.550;9.108;2023-04-12T07:08:31;42.87;36.54;57.39;;
40103;Laerm;25814;48.550;9.108;2023-04-12T07:10:57;46.18;37.15;62.16;;
40103;Laerm;25814;48.550;9.108;2023-04-12T07:13:23;41.03;36.67;49.88;;
40103;Laerm;25814;48.550;9.108;2023-04-12T07:15:51;45.68;36.13;63.69;;
40103;Laerm;25814;48.550;9.108;2023-04-12T07:18:17;43.69;36.63;54.67;;
40103;Laerm;25814;48.550;9.108;2023-04-12T07:20:47;42.55;35.96;58.14;;
40103;Laerm;25814;48.550;9.108;2023-04-12T07:23:15;49.98;37.88;65.52;;
40103;Laerm;25814;48.550;9.108;2023-04-12T07:25:41;48.77;38.08;68.41;;
40103;Laerm;25814;48.550;9.108;2023-04-12T07:28:07;50.35;35.60;72.26;;
40103;Laerm;25814;48.550;9.108;2023-04-12T07:30:34;50.55;36.45;61.64;;
40103;Laerm;25814;48.550;9.108;2023-04-12T07:33:00;41.73;35.55;58.97;;
40103;Laerm;25814;48.550;9.108;2023-04-12T07:35:31;37.79;34.63;49.98;;
40103;Laerm;25814;48.550;9.108;2023-04-12T07:37:57;38.57;34.83;49.93;;
40103;Laerm;25814;48.550;9.108;2023-04-12T07:40:23;38.27;34.69;48.69;;
40103;Laerm;25814;48.550;9.108;2023-04-12T07:42:49;46.24;34.85;72.88;;
40103;Laerm;25814;48.550;9.108;2023-04-12T07:45:16;45.02;34.69;66.14;;
40103;Laerm;25814;48.550;9.108;2023-04-12T07:47:42;45.61;34.19;53.52;;
40103;Laerm;25814;48.550;9.108;2023-04-12T07:50:09;58.34;35.34;87.18;;
40103;Laerm;25814;48.550;9.108;2023-04-12T07:52:35;60.72;35.64;84.19;;
40103;Laerm;25814;48.550;9.108;2023-04-12T07:55:02;53.07;34.95;72.16;;
40103;Laerm;25814;48.550;9.108;2023-04-12T07:57:28;57.45;35.32;84.85;;
40103;Laerm;25814;48.550;9.108;2023-04-12T07:59:54;41.91;36.41;57.89;;
40103;Laerm;25814;48.550;9.108;2023-04-12T08:02:21;43.66;36.28;58.92;;
40103;Laerm;25814;48.550;9.108;2023-04-12T08:04:51;43.36;35.60;57.07;;
40103;Laerm;25814;48.550;9.108;2023-04-12T08:07:17;41.27;34.84;58.71;;
40103;Laerm;25814;48.550;9.108;2023-04-12T08:09:44;43.44;34.49;61.24;;
40103;Laerm;25814;48.550;9.108;2023-04-12T08:12:10;42.96;35.33;52.98;;
40103;Laerm;25814;48.550;9.108;2023-04-12T08:14:36;65.77;37.76;82.73;;
40103;Laerm;25814;48.550;9.108;2023-04-12T08:17:03;65.00;39.51;82.01;;
40103;Laerm;25814;48.550;9.108;2023-04-12T08:19:29;44.89;39.45;56.65;;
40103;Laerm;25814;48.550;9.108;2023-04-12T08:21:55;42.82;36.90;55.59;;
40103;Laerm;25814;48.550;9.108;2023-04-12T08:24:21;43.26;36.86;53.54;;
40103;Laerm;25814;48.550;9.108;2023-04-12T08:26:49;43.67;36.83;52.33;;
40103;Laerm;25814;48.550;9.108;2023-04-12T08:29:16;38.58;35.60;49.23;;
40103;Laerm;25814;48.550;9.108;2023-04-12T08:31:43;41.28;34.09;53.07;;
40103;Laerm;25814;48.550;9.108;2023-04-12T08:34:09;41.48;35.03;51.91;;
40103;Laerm;25814;48.550;9.108;2023-04-12T08:36:35;44.35;35.61;58.38;;
40103;Laerm;25814;48.550;9.108;2023-04-12T08:39:02;42.31;35.61;50.55;;
40103;Laerm;25814;48.550;9.108;2023-04-12T08:41:28;41.96;34.96;54.57;;
40103;Laerm;25814;48.550;9.108;2023-04-12T08:43:54;41.11;35.14;51.46;;
40103;Laerm;25814;48.550;9.108;2023-04-12T08:46:21;41.43;34.33;52.31;;
40103;Laerm;25814;48.550;9.108;2023-04-12T08:48:50;42.34;32.65;60.16;;
40103;Laerm;25814;48.550;9.108;2023-04-12T08:51:20;42.79;33.46;63.68;;
40103;Laerm;25814;48.550;9.108;2023-04-12T08:53:47;50.68;33.82;67.85;;
40103;Laerm;25814;48.550;9.108;2023-04-12T08:56:15;42.21;34.65;64.77;;
40103;Laerm;25814;48.550;9.108;2023-04-12T08:58:45;39.73;34.25;48.38;;
40103;Laerm;25814;48.550;9.108;2023-04-12T09:01:19;39.47;34.25;51.20;;
40103;Laerm;25814;48.550;9.108;2023-04-12T09:03:45;44.14;35.63;54.91;;
40103;Laerm;25814;48.550;9.108;2023-04-12T09:06:12;39.44;35.39;55.13;;
40103;Laerm;25814;48.550;9.108;2023-04-12T09:08:55;40.03;35.87;51.84;;
40103;Laerm;25814;48.550;9.108;2023-04-12T09:11:23;45.65;35.00;58.17;;
40103;Laerm;25814;48.550;9.108;2023-04-12T09:13:50;42.17;37.25;62.31;;
40103;Laerm;25814;48.550;9.108;2023-04-12T09:16:17;45.90;35.69;60.58;;
40103;Laerm;25814;48.550;9.108;2023-04-12T09:18:49;39.67;34.29;58.17;;
40103;Laerm;25814;48.550;9.108;2023-04-12T09:21:17;38.81;35.08;46.96;;
40103;Laerm;25814;48.550;9.108;2023-04-12T09:23:43;43.88;35.38;64.63;;
40103;Laerm;25814;48.550;9.108;2023-04-12T09:26:26;42.34;34.24;55.81;;
40103;Laerm;25814;48.550;9.108;2023-04-12T09:28:53;39.73;34.83;53.28;;
40103;Laerm;25814;48.550;9.108;2023-04-12T09:31:19;39.02;35.70;51.21;;
40103;Laerm;25814;48.550;9.108;2023-04-12T09:33:46;41.56;35.20;61.09;;
40103;Laerm;25814;48.550;9.108;2023-04-12T09:36:12;42.81;36.21;56.80;;
40103;Laerm;25814;48.550;9.108;2023-04-12T09:38:38;40.73;33.27;55.85;;
40103;Laerm;25814;48.550;9.108;2023-04-12T09:41:20;46.03;34.02;69.11;;
40103;Laerm;25814;48.550;9.108;2023-04-12T09:43:47;41.64;36.27;60.28;;
40103;Laerm;25814;48.550;9.108;2023-04-12T09:46:13;39.29;35.36;50.97;;
40103;Laerm;25814;48.550;9.108;2023-04-12T09:48:48;46.27;34.86;58.80;;
40103;Laerm;25814;48.550;9.108;2023-04-12T09:51:30;44.78;34.21;59.91;;
40103;Laerm;25814;48.550;9.108;2023-04-12T09:53:59;43.18;34.36;57.59;;
40103;Laerm;25814;48.550;9.108;2023-04-12T09:56:32;48.15;36.46;62.34;;
40103;Laerm;25814;48.550;9.108;2023-04-12T09:59:06;43.42;35.96;61.45;;
40103;Laerm;25814;48.550;9.108;2023-04-12T10:01:35;65.27;35.41;88.74;;
40103;Laerm;25814;48.550;9.108;2023-04-12T10:04:05;43.56;34.06;64.48;;
40103;Laerm;25814;48.550;9.108;2023-04-12T10:06:33;66.57;32.94;91.63;;
40103;Laerm;25814;48.550;9.108;2023-04-12T10:09:03;51.87;32.29;75.60;;
40103;Laerm;25814;48.550;9.108;2023-04-12T10:11:29;41.29;32.66;61.59;;
40103;Laerm;25814;48.550;9.108;2023-04-12T10:13:57;42.86;34.52;64.63;;
40103;Laerm;25814;48.550;9.108;2023-04-12T10:16:25;46.78;33.09;68.79;;
40103;Laerm;25814;48.550;9.108;2023-04-12T10:18:53;48.73;33.79;73.74;;
40103;Laerm;25814;48.550;9.108;2023-04-12T10:21:20;52.69;33.45;74.63;;
40103;Laerm;25814;48.550;9.108;2023-04-12T10:23:47;60.09;33.25;81.98;;
40103;Laerm;25814;48.550;9.108;2023-04-12T10:26:15;49.22;34.09;70.12;;
40103;Laerm;25814;48.550;9.108;2023-04-12T10:28:45;57.99;34.63;84.77;;
40103;Laerm;25814;48.550;9.108;2023-04-12T10:31:29;48.15;34.25;72.39;;
40103;Laerm;25814;48.550;9.108;2023-04-12T10:33:55;48.15;34.87;73.26;;
40103;Laerm;25814;48.550;9.108;2023-04-12T10:36:53;51.84;34.65;74.76;;
40103;Laerm;25814;48.550;9.108;2023-04-12T10:39:38;50.47;33.63;71.87;;
40103;Laerm;25814;48.550;9.108;2023-04-12T10:42:27;74.52;35.89;97.96;;
40103;Laerm;25814;48.550;9.108;2023-04-12T10:55:41;55.52;34.31;80.81;;
40103;Laerm;25814;48.550;9.108;2023-04-12T10:58:09;48.41;34.64;76.16;;
40103;Laerm;25814;48.550;9.108;2023-04-12T11:03:26;74.38;33.29;98.20;;
40103;Laerm;25814;48.550;9.108;2023-04-12T11:06:10;52.30;36.10;73.73;;
40103;Laerm;25814;48.550;9.108;2023-04-12T11:08:38;53.45;35.42;79.69;;
40103;Laerm;25814;48.550;9.108;2023-04-12T11:11:18;57.90;35.97;81.29;;
40103;Laerm;25814;48.550;9.108;2023-04-12T11:13:46;67.47;33.56;92.84;;
40103;Laerm;25814;48.550;9.108;2023-04-12T11:16:13;47.17;33.78;69.16;;
40103;Laerm;25814;48.550;9.108;2023-04-12T11:18:39;71.93;34.19;95.59;;
40103;Laerm;25814;48.550;9.108;2023-04-12T11:21:06;40.41;34.51;64.21;;
40103;Laerm;25814;48.550;9.108;2023-04-12T11:23:32;52.10;32.93;74.85;;
40103;Laerm;25814;48.550;9.108;2023-04-12T11:26:02;38.30;33.72;47.59;;
40103;Laerm;25814;48.550;9.108;2023-04-12T11:28:29;41.47;35.90;63.82;;
40103;Laerm;25814;48.550;9.108;2023-04-12T11:30:55;43.66;35.22;64.83;;
40103;Laerm;25814;48.550;9.108;2023-04-12T11:33:37;63.06;34.97;83.91;;
40103;Laerm;25814;48.550;9.108;2023-04-12T11:36:12;67.65;35.69;90.64;;
40103;Laerm;25814;48.550;9.108;2023-04-12T11:38:39;58.23;34.77;81.83;;
40103;Laerm;25814;48.550;9.108;2023-04-12T11:41:07;57.29;33.60;79.80;;
40103;Laerm;25814;48.550;9.108;2023-04-12T11:43:35;61.71;34.23;87.03;;
40103;Laerm;25814;48.550;9.108;2023-04-12T11:46:05;44.75;34.91;65.53;;
40103;Laerm;25814;48.550;9.108;2023-04-12T11:48:31;45.86;34.84;70.16;;
40103;Laerm;25814;48.550;9.108;2023-04-12T11:50:58;48.17;36.38;68.23;;
40103;Laerm;25814;48.550;9.108;2023-04-12T11:53:27;44.26;35.38;64.64;;
40103;Laerm;25814;48.550;9.108;2023-04-12T11:55:56;78.40;34.96;100.14;;
40103;Laerm;25814;48.550;9.108;2023-04-12T11:58:25;52.97;35.04;78.22;;
40103;Laerm;25814;48.550;9.108;2023-04-12T12:00:53;52.37;33.54;72.70;;
40103;Laerm;25814;48.550;9.108;2023-04-12T12:03:23;41.21;34.03;61.18;;
40103;Laerm;25814;48.550;9.108;2023-04-12T12:05:50;67.53;33.83;90.92;;
40103;Laerm;25814;48.550;9.108;2023-04-12T12:08:17;60.24;33.33;86.16;;
40103;Laerm;25814;48.550;9.108;2023-04-12T12:10:44;61.33;33.73;87.65;;
40103;Laerm;25814;48.550;9.108;2023-04-12T12:13:13;40.28;33.06;61.21;;
40103;Laerm;25814;48.550;9.108;2023-04-12T12:15:43;46.99;33.64;69.44;;
40103;Laerm;25814;48.550;9.108;2023-04-12T12:18:10;61.28;34.75;86.06;;
40103;Laerm;25814;48.550;9.108;2023-04-12T12:20:49;47.67;34.02;72.17;;
40103;Laerm;25814;48.550;9.108;2023-04-12T12:23:31;61.88;34.02;85.55;;
40103;Laerm;25814;48.550;9.108;2023-04-12T12:26:02;43.51;34.31;65.20;;
40103;Laerm;25814;48.550;9.108;2023-04-12T12:28:29;60.13;34.08;85.79;;
40103;Laerm;25814;48.550;9.108;2023-04-12T12:30:56;47.11;36.24;66.30;;
40103;Laerm;25814;48.550;9.108;2023-04-12T12:33:23;50.40;37.33;70.15;;
40103;Laerm;25814;48.550;9.108;2023-04-12T12:35:56;42.18;35.53;57.86;;
40103;Laerm;25814;48.550;9.108;2023-04-12T12:38:23;63.88;35.83;87.87;;
40103;Laerm;25814;48.550;9.108;2023-04-12T12:40:49;55.65;34.97;80.23;;
40103;Laerm;25814;48.550;9.108;2023-04-12T12:43:19;57.07;34.33;79.74;;
40103;Laerm;25814;48.550;9.108;2023-04-12T12:45:46;55.52;35.14;70.62;;
40103;Laerm;25814;48.550;9.108;2023-04-12T12:48:12;55.37;34.84;77.75;;
40103;Laerm;25814;48.550;9.108;2023-04-12T12:50:38;42.69;35.07;63.74;;
40103;Laerm;25814;48.550;9.108;2023-04-12T12:53:05;76.16;35.51;102.50;;
40103;Laerm;25814;48.550;9.108;2023-04-12T12:55:31;65.97;35.14;92.53;;
40103;Laerm;25814;48.550;9.108;2023-04-12T12:57:58;68.29;33.55;90.13;;
40103;Laerm;25814;48.550;9.108;2023-04-12T13:00:26;67.05;33.18;89.16;;
40103;Laerm;25814;48.550;9.108;2023-04-12T13:02:53;70.31;34.83;94.32;;
40103;Laerm;25814;48.550;9.108;2023-04-12T13:05:20;58.98;33.50;87.51;;
40103;Laerm;25814;48.550;9.108;2023-04-12T13:07:47;46.03;34.20;65.13;;
40103;Laerm;25814;48.550;9.108;2023-04-12T13:10:13;60.47;34.04;84.74;;
40103;Laerm;25814;48.550;9.108;2023-04-12T13:12:40;56.94;32.23;83.77;;
40103;Laerm;25814;48.550;9.108;2023-04-12T13:15:06;52.13;33.70;76.52;;
40103;Laerm;25814;48.550;9.108;2023-04-12T13:17:33;58.68;34.10;82.52;;
40103;Laerm;25814;48.550;9.108;2023-04-12T13:20:00;38.91;33.33;55.86;;
40103;Laerm;25814;48.550;9.108;2023-04-12T13:22:26;73.76;33.96;100.64;;
40103;Laerm;25814;48.550;9.108;2023-04-12T13:24:52;64.35;33.85;85.82;;
40103;Laerm;25814;48.550;9.108;2023-04-12T13:27:19;64.07;33.69;87.00;;
40103;Laerm;25814;48.550;9.108;2023-04-12T13:29:46;55.08;34.91;78.34;;
40103;Laerm;25814;48.550;9.108;2023-04-12T13:32:12;68.41;33.91;92.54;;
40103;Laerm;25814;48.550;9.108;2023-04-12T13:34:38;63.23;35.49;89.22;;
40103;Laerm;25814;48.550;9.108;2023-04-12T13:37:05;62.58;33.61;89.70;;
40103;Laerm;25814;48.550;9.108;2023-04-12T13:39:32;63.29;32.49;85.97;;
40103;Laerm;25814;48.550;9.108;2023-04-12T13:41:59;38.09;33.56;48.23;;
40103;Laerm;25814;48.550;9.108;2023-04-12T13:44:26;66.64;32.82;88.57;;
40103;Laerm;25814;48.550;9.108;2023-04-12T13:46:53;42.16;32.57;63.91;;
40103;Laerm;25814;48.550;9.108;2023-04-12T13:49:20;50.52;33.04;71.48;;
40103;Laerm;25814;48.550;9.108;2023-04-12T13:51:46;66.25;33.89;90.92;;
40103;Laerm;25814;48.550;9.108;2023-04-12T13:54:12;39.35;34.81;54.78;;
40103;Laerm;25814;48.550;9.108;2023-04-12T13:56:40;66.32;34.60;89.32;;
40103;Laerm;25814;48.550;9.108;2023-04-12T13:59:06;60.61;33.69;87.54;;
40103;Laerm;25814;48.550;9.108;2023-04-12T14:01:32;54.34;34.25;77.47;;
40103;Laerm;25814;48.550;9.108;2023-04-12T14:03:58;61.89;32.77;86.11;;
40103;Laerm;25814;48.550;9.108;2023-04-12T14:06:25;47.21;34.09;72.47;;